sensor_id;sensor_type;location;lat;lon;timestamp;P1;durP1;ratioP1;P2;durP2;ratioP2
84264;SDS011;74412;45.626;5.108;2023-12-14T00:00:49;3.00;;;1.00;;
84264;SDS011;74412;45.626;5.108;2023-12-14T00:03:15;2.75;;;2.00;;
84264;SDS011;74412;45.626;5.108;2023-12-14T00:05:42;0.25;;;0.00;;
84264;SDS011;74412;45.626;5.108;2023-12-14T00:08:12;2.75;;;2.00;;
84264;SDS011;74412;45.626;5.108;2023-12-14T00:10:39;2.00;;;2.00;;
84264;SDS011;74412;45.626;5.108;2023-12-14T00:13:05;2.75;;;2.00;;
84264;SDS011;74412;45.626;5.108;2023-12-14T00:15:32;1.00;;;1.00;;
84264;SDS011;74412;45.626;5.108;2023-12-14T00:17:59;2.00;;;1.75;;
84264;SDS011;74412;45.626;5.108;2023-12-14T00:20:26;3.00;;;2.00;;
84264;SDS011;74412;45.626;5.108;2023-12-14T00:22:52;1.50;;;1.50;;
84264;SDS011;74412;45.626;5.108;2023-12-14T00:25:20;1.75;;;1.75;;
84264;SDS011;74412;45.626;5.108;2023-12-14T00:27:47;2.00;;;2.00;;
84264;SDS011;74412;45.626;5.108;2023-12-14T00:30:16;2.50;;;2.00;;
84264;SDS011;74412;45.626;5.108;2023-12-14T00:32:43;2.50;;;2.50;;
84264;SDS011;74412;45.626;5.108;2023-12-14T00:35:09;4.00;;;2.75;;
84264;SDS011;74412;45.626;5.108;2023-12-14T00:37:36;2.00;;;1.25;;
84264;SDS011;74412;45.626;5.108;2023-12-14T00:40:03;3.25;;;3.25;;
84264;SDS011;74412;45.626;5.108;2023-12-14T00:42:31;2.25;;;2.25;;
84264;SDS011;74412;45.626;5.108;2023-12-14T00:44:58;2.50;;;2.25;;
84264;SDS011;74412;45.626;5.108;2023-12-14T00:47:24;3.00;;;2.00;;
84264;SDS011;74412;45.626;5.108;2023-12-14T00:49:51;3.25;;;2.50;;
84264;SDS011;74412;45.626;5.108;2023-12-14T00:52:18;2.00;;;2.00;;
84264;SDS011;74412;45.626;5.108;2023-12-14T00:54:47;2.00;;;2.00;;
84264;SDS011;74412;45.626;5.108;2023-12-14T00:57:14;3.00;;;3.00;;
84264;SDS011;74412;45.626;5.108;2023-12-14T00:59:45;4.00;;;4.00;;
84264;SDS011;74412;45.626;5.108;2023-12-14T01:02:11;2.75;;;2.75;;
84264;SDS011;74412;45.626;5.108;2023-12-14T01:04:37;3.00;;;3.00;;
84264;SDS011;74412;45.626;5.108;2023-12-14T01:07:04;4.00;;;4.00;;
84264;SDS011;74412;45.626;5.108;2023-12-14T01:09:30;5.00;;;5.00;;
84264;SDS011;74412;45.626;5.108;2023-12-14T01:11:57;3.75;;;2.50;;
84264;SDS011;74412;45.626;5.108;2023-12-14T01:14:24;3.00;;;3.00;;
84264;SDS011;74412;45.626;5.108;2023-12-14T01:16:52;2.25;;;2.25;;
84264;SDS011;74412;45.626;5.108;2023-12-14T01:19:18;3.00;;;3.00;;
84264;SDS011;74412;45.626;5.108;2023-12-14T01:21:45;3.75;;;3.00;;
84264;SDS011;74412;45.626;5.108;2023-12-14T01:24:11;4.00;;;3.00;;
84264;SDS011;74412;45.626;5.108;2023-12-14T01:26:39;3.00;;;3.00;;
84264;SDS011;74412;45.626;5.108;2023-12-14T01:29:06;3.00;;;2.00;;
84264;SDS011;74412;45.626;5.108;2023-12-14T01:31:32;3.25;;;2.75;;
84264;SDS011;74412;45.626;5.108;2023-12-14T01:34:00;2.50;;;2.50;;
84264;SDS011;74412;45.626;5.108;2023-12-14T01:36:27;3.50;;;3.00;;
84264;SDS011;74412;45.626;5.108;2023-12-14T01:38:54;2.25;;;2.25;;
84264;SDS011;74412;45.626;5.108;2023-12-14T01:41:20;3.50;;;3.50;;
84264;SDS011;74412;45.626;5.108;2023-12-14T01:43:47;4.00;;;4.00;;
84264;SDS011;74412;45.626;5.108;2023-12-14T01:46:13;3.00;;;3.00;;
84264;SDS011;74412;45.626;5.108;2023-12-14T01:48:41;3.00;;;3.00;;
84264;SDS011;74412;45.626;5.108;2023-12-14T01:51:09;3.75;;;3.00;;
84264;SDS011;74412;45.626;5.108;2023-12-14T01:53:36;5.00;;;3.00;;
84264;SDS011;74412;45.626;5.108;2023-12-14T01:56:02;3.00;;;3.00;;
84264;SDS011;74412;45.626;5.108;2023-12-14T01:58:29;2.75;;;2.75;;
84264;SDS011;74412;45.626;5.108;2023-12-14T02:00:58;4.00;;;3.50;;
84264;SDS011;74412;45.626;5.108;2023-12-14T02:03:32;2.00;;;2.00;;
84264;SDS011;74412;45.626;5.108;2023-12-14T02:05:58;4.50;;;3.25;;
84264;SDS011;74412;45.626;5.108;2023-12-14T02:08:27;3.50;;;3.50;;
84264;SDS011;74412;45.626;5.108;2023-12-14T02:10:54;3.00;;;3.00;;
84264;SDS011;74412;45.626;5.108;2023-12-14T02:13:20;4.00;;;4.00;;
84264;SDS011;74412;45.626;5.108;2023-12-14T02:15:47;4.50;;;4.50;;
84264;SDS011;74412;45.626;5.108;2023-12-14T02:18:14;6.25;;;5.25;;
84264;SDS011;74412;45.626;5.108;2023-12-14T02:20:40;4.50;;;4.00;;
84264;SDS011;74412;45.626;5.108;2023-12-14T02:23:08;4.00;;;4.00;;
84264;SDS011;74412;45.626;5.108;2023-12-14T02:25:35;5.00;;;4.00;;
84264;SDS011;74412;45.626;5.108;2023-12-14T02:28:01;4.00;;;4.00;;
84264;SDS011;74412;45.626;5.108;2023-12-14T02:30:28;8.50;;;5.00;;
84264;SDS011;74412;45.626;5.108;2023-12-14T02:32:55;5.75;;;4.00;;
84264;SDS011;74412;45.626;5.108;2023-12-14T02:35:21;5.00;;;3.00;;
84264;SDS011;74412;45.626;5.108;2023-12-14T02:37:47;3.50;;;3.00;;
84264;SDS011;74412;45.626;5.108;2023-12-14T02:40:16;4.50;;;4.00;;
84264;SDS011;74412;45.626;5.108;2023-12-14T02:42:43;2.75;;;2.75;;
84264;SDS011;74412;45.626;5.108;2023-12-14T02:45:09;1.75;;;1.75;;
84264;SDS011;74412;45.626;5.108;2023-12-14T02:47:36;2.00;;;1.00;;
84264;SDS011;74412;45.626;5.108;2023-12-14T02:50:03;2.50;;;2.50;;
84264;SDS011;74412;45.626;5.108;2023-12-14T02:52:30;3.25;;;3.00;;
84264;SDS011;74412;45.626;5.108;2023-12-14T02:54:57;2.75;;;2.75;;
84264;SDS011;74412;45.626;5.108;2023-12-14T02:57:25;3.25;;;2.00;;
84264;SDS011;74412;45.626;5.108;2023-12-14T02:59:52;4.00;;;2.00;;
84264;SDS011;74412;45.626;5.108;2023-12-14T03:02:18;2.75;;;2.00;;
84264;SDS011;74412;45.626;5.108;2023-12-14T03:04:45;1.50;;;1.00;;
84264;SDS011;74412;45.626;5.108;2023-12-14T03:07:12;0.00;;;0.00;;
84264;SDS011;74412;45.626;5.108;2023-12-14T03:09:39;0.00;;;0.00;;
84264;SDS011;74412;45.626;5.108;2023-12-14T03:12:06;1.00;;;1.00;;
84264;SDS011;74412;45.626;5.108;2023-12-14T03:14:34;0.25;;;0.25;;
84264;SDS011;74412;45.626;5.108;2023-12-14T03:17:01;0.00;;;0.00;;
84264;SDS011;74412;45.626;5.108;2023-12-14T03:19:28;0.00;;;0.00;;
84264;SDS011;74412;45.626;5.108;2023-12-14T03:21:54;0.00;;;0.00;;
84264;SDS011;74412;45.626;5.108;2023-12-14T03:24:21;0.50;;;0.50;;
84264;SDS011;74412;45.626;5.108;2023-12-14T03:26:48;1.00;;;0.00;;
84264;SDS011;74412;45.626;5.108;2023-12-14T03:29:14;0.00;;;0.00;;
84264;SDS011;74412;45.626;5.108;2023-12-14T03:31:42;0.00;;;0.00;;
84264;SDS011;74412;45.626;5.108;2023-12-14T03:34:09;0.00;;;0.00;;
84264;SDS011;74412;45.626;5.108;2023-12-14T03:36:36;0.00;;;0.00;;
84264;SDS011;74412;45.626;5.108;2023-12-14T03:39:03;0.00;;;0.00;;
84264;SDS011;74412;45.626;5.108;2023-12-14T03:41:29;0.00;;;0.00;;
84264;SDS011;74412;45.626;5.108;2023-12-14T03:43:56;0.75;;;0.75;;
84264;SDS011;74412;45.626;5.108;2023-12-14T03:46:23;0.00;;;0.00;;
84264;SDS011;74412;45.626;5.108;2023-12-14T03:48:51;1.00;;;1.00;;
84264;SDS011;74412;45.626;5.108;2023-12-14T03:51:18;0.75;;;0.00;;
84264;SDS011;74412;45.626;5.108;2023-12-14T03:53:46;0.00;;;0.00;;
84264;SDS011;74412;45.626;5.108;2023-12-14T03:56:12;0.00;;;0.00;;
84264;SDS011;74412;45.626;5.108;2023-12-14T03:58:39;0.00;;;0.00;;
84264;SDS011;74412;45.626;5.108;2023-12-14T04:01:06;0.00;;;0.00;;
84264;SDS011;74412;45.626;5.108;2023-12-14T04:03:32;0.00;;;0.00;;
84264;SDS011;74412;45.626;5.108;2023-12-14T04:06:00;0.50;;;0.50;;
84264;SDS011;74412;45.626;5.108;2023-12-14T04:08:27;1.00;;;0.00;;
84264;SDS011;74412;45.626;5.108;2023-12-14T04:10:54;2.00;;;1.00;;
84264;SDS011;74412;45.626;5.108;2023-12-14T04:13:20;0.00;;;0.00;;
84264;SDS011;74412;45.626;5.108;2023-12-14T04:15:47;0.25;;;0.25;;
84264;SDS011;74412;45.626;5.108;2023-12-14T04:18:13;0.00;;;0.00;;
84264;SDS011;74412;45.626;5.108;2023-12-14T04:20:40;0.00;;;0.00;;
84264;SDS011;74412;45.626;5.108;2023-12-14T04:23:08;0.00;;;0.00;;
84264;SDS011;74412;45.626;5.108;2023-12-14T04:25:35;0.25;;;0.25;;
84264;SDS011;74412;45.626;5.108;2023-12-14T04:28:01;1.00;;;1.00;;
84264;SDS011;74412;45.626;5.108;2023-12-14T04:30:28;0.50;;;0.50;;
84264;SDS011;74412;45.626;5.108;2023-12-14T04:32:54;2.75;;;1.00;;
84264;SDS011;74412;45.626;5.108;2023-12-14T04:35:21;1.00;;;1.00;;
84264;SDS011;74412;45.626;5.108;2023-12-14T04:37:48;2.50;;;2.00;;
84264;SDS011;74412;45.626;5.108;2023-12-14T04:40:16;1.00;;;1.00;;
84264;SDS011;74412;45.626;5.108;2023-12-14T04:42:43;1.25;;;1.00;;
84264;SDS011;74412;45.626;5.108;2023-12-14T04:45:09;1.50;;;1.00;;
84264;SDS011;74412;45.626;5.108;2023-12-14T04:47:37;4.00;;;2.00;;
84264;SDS011;74412;45.626;5.108;2023-12-14T04:50:05;2.75;;;1.00;;
84264;SDS011;74412;45.626;5.108;2023-12-14T04:52:32;1.00;;;1.00;;
84264;SDS011;74412;45.626;5.108;2023-12-14T04:54:58;2.00;;;1.50;;
84264;SDS011;74412;45.626;5.108;2023-12-14T04:57:27;2.50;;;2.50;;
84264;SDS011;74412;45.626;5.108;2023-12-14T04:59:53;1.75;;;1.75;;
84264;SDS011;74412;45.626;5.108;2023-12-14T05:02:20;2.50;;;2.25;;
84264;SDS011;74412;45.626;5.108;2023-12-14T05:04:46;2.25;;;2.25;;
84264;SDS011;74412;45.626;5.108;2023-12-14T05:07:13;1.75;;;1.75;;
84264;SDS011;74412;45.626;5.108;2023-12-14T05:09:40;2.25;;;2.25;;
84264;SDS011;74412;45.626;5.108;2023-12-14T05:12:06;0.75;;;0.75;;
84264;SDS011;74412;45.626;5.108;2023-12-14T05:14:34;2.00;;;1.00;;
84264;SDS011;74412;45.626;5.108;2023-12-14T05:17:01;1.50;;;1.25;;
84264;SDS011;74412;45.626;5.108;2023-12-14T05:19:28;2.50;;;1.75;;
84264;SDS011;74412;45.626;5.108;2023-12-14T05:21:54;0.00;;;0.00;;
84264;SDS011;74412;45.626;5.108;2023-12-14T05:24:21;1.00;;;1.00;;
84264;SDS011;74412;45.626;5.108;2023-12-14T05:26:48;1.00;;;1.00;;
84264;SDS011;74412;45.626;5.108;2023-12-14T05:29:15;1.00;;;1.00;;
84264;SDS011;74412;45.626;5.108;2023-12-14T05:31:43;0.00;;;0.00;;
84264;SDS011;74412;45.626;5.108;2023-12-14T05:34:10;1.00;;;1.00;;
84264;SDS011;74412;45.626;5.108;2023-12-14T05:36:36;0.00;;;0.00;;
84264;SDS011;74412;45.626;5.108;2023-12-14T05:39:03;0.00;;;0.00;;
84264;SDS011;74412;45.626;5.108;2023-12-14T05:41:30;1.00;;;1.00;;
84264;SDS011;74412;45.626;5.108;2023-12-14T05:43:56;0.00;;;0.00;;
84264;SDS011;74412;45.626;5.108;2023-12-14T05:46:23;0.00;;;0.00;;
84264;SDS011;74412;45.626;5.108;2023-12-14T05:48:51;0.00;;;0.00;;
84264;SDS011;74412;45.626;5.108;2023-12-14T05:51:28;0.00;;;0.00;;
84264;SDS011;74412;45.626;5.108;2023-12-14T05:53:55;0.75;;;0.75;;
84264;SDS011;74412;45.626;5.108;2023-12-14T05:56:21;0.25;;;0.25;;
84264;SDS011;74412;45.626;5.108;2023-12-14T05:58:48;1.50;;;0.00;;
84264;SDS011;74412;45.626;5.108;2023-12-14T06:01:16;1.00;;;1.00;;
84264;SDS011;74412;45.626;5.108;2023-12-14T06:03:43;0.00;;;0.00;;
84264;SDS011;74412;45.626;5.108;2023-12-14T06:06:11;0.00;;;0.00;;
84264;SDS011;74412;45.626;5.108;2023-12-14T06:08:39;0.00;;;0.00;;
84264;SDS011;74412;45.626;5.108;2023-12-14T06:11:06;0.00;;;0.00;;
84264;SDS011;74412;45.626;5.108;2023-12-14T06:13:33;0.00;;;0.00;;
84264;SDS011;74412;45.626;5.108;2023-12-14T06:16:00;0.50;;;0.00;;
84264;SDS011;74412;45.626;5.108;2023-12-14T06:18:27;1.00;;;1.00;;
84264;SDS011;74412;45.626;5.108;2023-12-14T06:20:54;0.00;;;0.00;;
84264;SDS011;74412;45.626;5.108;2023-12-14T06:23:22;0.00;;;0.00;;
84264;SDS011;74412;45.626;5.108;2023-12-14T06:25:50;0.00;;;0.00;;
84264;SDS011;74412;45.626;5.108;2023-12-14T06:28:17;2.00;;;0.00;;
84264;SDS011;74412;45.626;5.108;2023-12-14T06:30:43;0.00;;;0.00;;
84264;SDS011;74412;45.626;5.108;2023-12-14T06:33:10;0.00;;;0.00;;
84264;SDS011;74412;45.626;5.108;2023-12-14T06:35:36;0.00;;;0.00;;
84264;SDS011;74412;45.626;5.108;2023-12-14T06:38:03;0.25;;;0.25;;
84264;SDS011;74412;45.626;5.108;2023-12-14T06:40:31;0.25;;;0.00;;
84264;SDS011;74412;45.626;5.108;2023-12-14T06:42:58;0.25;;;0.25;;
84264;SDS011;74412;45.626;5.108;2023-12-14T06:45:24;3.00;;;1.00;;
84264;SDS011;74412;45.626;5.108;2023-12-14T06:47:51;3.00;;;1.00;;
84264;SDS011;74412;45.626;5.108;2023-12-14T06:50:18;2.50;;;1.25;;
84264;SDS011;74412;45.626;5.108;2023-12-14T06:52:44;1.00;;;1.00;;
84264;SDS011;74412;45.626;5.108;2023-12-14T06:55:11;1.00;;;1.00;;
84264;SDS011;74412;45.626;5.108;2023-12-14T06:57:41;0.25;;;0.25;;
84264;SDS011;74412;45.626;5.108;2023-12-14T07:00:09;1.50;;;1.00;;
84264;SDS011;74412;45.626;5.108;2023-12-14T07:02:36;1.00;;;1.00;;
84264;SDS011;74412;45.626;5.108;2023-12-14T07:05:03;2.00;;;2.00;;
84264;SDS011;74412;45.626;5.108;2023-12-14T07:07:30;2.00;;;2.00;;
84264;SDS011;74412;45.626;5.108;2023-12-14T07:09:57;2.00;;;2.00;;
84264;SDS011;74412;45.626;5.108;2023-12-14T07:12:23;4.25;;;2.00;;
84264;SDS011;74412;45.626;5.108;2023-12-14T07:14:52;1.75;;;1.75;;
84264;SDS011;74412;45.626;5.108;2023-12-14T07:17:19;2.00;;;2.00;;
84264;SDS011;74412;45.626;5.108;2023-12-14T07:19:46;3.00;;;3.00;;
84264;SDS011;74412;45.626;5.108;2023-12-14T07:22:13;2.25;;;2.00;;
84264;SDS011;74412;45.626;5.108;2023-12-14T07:24:42;2.25;;;2.25;;
84264;SDS011;74412;45.626;5.108;2023-12-14T07:27:13;3.00;;;2.00;;
84264;SDS011;74412;45.626;5.108;2023-12-14T07:29:40;2.00;;;2.00;;
84264;SDS011;74412;45.626;5.108;2023-12-14T07:32:08;1.25;;;1.25;;
84264;SDS011;74412;45.626;5.108;2023-12-14T07:34:34;3.00;;;3.00;;
84264;SDS011;74412;45.626;5.108;2023-12-14T07:37:01;2.50;;;2.50;;
84264;SDS011;74412;45.626;5.108;2023-12-14T07:39:28;2.00;;;2.00;;
84264;SDS011;74412;45.626;5.108;2023-12-14T07:41:54;2.50;;;2.00;;
84264;SDS011;74412;45.626;5.108;2023-12-14T07:44:21;3.00;;;3.00;;
84264;SDS011;74412;45.626;5.108;2023-12-14T07:46:50;4.00;;;4.00;;
84264;SDS011;74412;45.626;5.108;2023-12-14T07:49:18;3.00;;;3.00;;
84264;SDS011;74412;45.626;5.108;2023-12-14T07:51:45;4.00;;;4.00;;
84264;SDS011;74412;45.626;5.108;2023-12-14T07:54:12;3.00;;;3.00;;
84264;SDS011;74412;45.626;5.108;2023-12-14T07:56:38;2.75;;;2.75;;
84264;SDS011;74412;45.626;5.108;2023-12-14T07:59:05;3.50;;;3.50;;
84264;SDS011;74412;45.626;5.108;2023-12-14T08:01:32;5.25;;;4.75;;
84264;SDS011;74412;45.626;5.108;2023-12-14T08:03:59;3.50;;;3.50;;
84264;SDS011;74412;45.626;5.108;2023-12-14T08:06:27;3.50;;;3.50;;
84264;SDS011;74412;45.626;5.108;2023-12-14T08:08:54;5.50;;;4.75;;
84264;SDS011;74412;45.626;5.108;2023-12-14T08:11:23;4.25;;;4.25;;
84264;SDS011;74412;45.626;5.108;2023-12-14T08:13:49;4.00;;;4.00;;
84264;SDS011;74412;45.626;5.108;2023-12-14T08:16:16;4.00;;;4.00;;
84264;SDS011;74412;45.626;5.108;2023-12-14T08:18:43;5.75;;;5.50;;
84264;SDS011;74412;45.626;5.108;2023-12-14T08:21:11;5.25;;;5.00;;
84264;SDS011;74412;45.626;5.108;2023-12-14T08:23:39;3.25;;;3.25;;
84264;SDS011;74412;45.626;5.108;2023-12-14T08:26:06;4.00;;;4.00;;
84264;SDS011;74412;45.626;5.108;2023-12-14T08:28:33;8.50;;;7.00;;
84264;SDS011;74412;45.626;5.108;2023-12-14T08:31:00;5.25;;;5.25;;
84264;SDS011;74412;45.626;5.108;2023-12-14T08:33:28;6.50;;;5.00;;
84264;SDS011;74412;45.626;5.108;2023-12-14T08:35:54;6.00;;;5.00;;
84264;SDS011;74412;45.626;5.108;2023-12-14T08:38:21;4.50;;;4.50;;
84264;SDS011;74412;45.626;5.108;2023-12-14T08:40:49;4.00;;;4.00;;
84264;SDS011;74412;45.626;5.108;2023-12-14T08:43:16;4.00;;;4.00;;
84264;SDS011;74412;45.626;5.108;2023-12-14T08:45:43;3.00;;;3.00;;
84264;SDS011;74412;45.626;5.108;2023-12-14T08:48:09;5.00;;;5.00;;
84264;SDS011;74412;45.626;5.108;2023-12-14T08:50:36;4.00;;;4.00;;
84264;SDS011;74412;45.626;5.108;2023-12-14T08:53:03;4.25;;;3.50;;
84264;SDS011;74412;45.626;5.108;2023-12-14T08:55:30;5.00;;;5.00;;
84264;SDS011;74412;45.626;5.108;2023-12-14T08:57:59;6.00;;;5.75;;
84264;SDS011;74412;45.626;5.108;2023-12-14T09:00:25;5.50;;;5.50;;
84264;SDS011;74412;45.626;5.108;2023-12-14T09:02:52;7.25;;;5.75;;
84264;SDS011;74412;45.626;5.108;2023-12-14T09:05:19;6.25;;;6.00;;
84264;SDS011;74412;45.626;5.108;2023-12-14T09:07:46;7.00;;;7.00;;
84264;SDS011;74412;45.626;5.108;2023-12-14T09:10:12;5.50;;;5.50;;
84264;SDS011;74412;45.626;5.108;2023-12-14T09:12:39;6.75;;;6.00;;
84264;SDS011;74412;45.626;5.108;2023-12-14T09:15:08;4.00;;;4.00;;
84264;SDS011;74412;45.626;5.108;2023-12-14T09:17:35;7.00;;;6.75;;
84264;SDS011;74412;45.626;5.108;2023-12-14T09:20:01;7.00;;;6.00;;
84264;SDS011;74412;45.626;5.108;2023-12-14T09:22:30;6.50;;;6.50;;
84264;SDS011;74412;45.626;5.108;2023-12-14T09:24:56;2.50;;;2.00;;
84264;SDS011;74412;45.626;5.108;2023-12-14T09:27:23;7.00;;;6.00;;
84264;SDS011;74412;45.626;5.108;2023-12-14T09:29:50;10.00;;;9.75;;
84264;SDS011;74412;45.626;5.108;2023-12-14T09:32:18;6.00;;;6.00;;
84264;SDS011;74412;45.626;5.108;2023-12-14T09:34:44;10.25;;;10.25;;
84264;SDS011;74412;45.626;5.108;2023-12-14T09:37:11;5.75;;;5.75;;
84264;SDS011;74412;45.626;5.108;2023-12-14T09:39:39;6.75;;;5.25;;
84264;SDS011;74412;45.626;5.108;2023-12-14T09:42:06;7.50;;;6.75;;
84264;SDS011;74412;45.626;5.108;2023-12-14T09:44:33;7.25;;;6.50;;
84264;SDS011;74412;45.626;5.108;2023-12-14T09:47:01;8.00;;;8.00;;
84264;SDS011;74412;45.626;5.108;2023-12-14T09:49:30;7.00;;;7.00;;
84264;SDS011;74412;45.626;5.108;2023-12-14T09:51:57;8.00;;;6.00;;
84264;SDS011;74412;45.626;5.108;2023-12-14T09:54:23;12.25;;;10.50;;
84264;SDS011;74412;45.626;5.108;2023-12-14T09:56:51;12.00;;;8.25;;
84264;SDS011;74412;45.626;5.108;2023-12-14T09:59:18;7.00;;;7.00;;
84264;SDS011;74412;45.626;5.108;2023-12-14T10:01:45;10.50;;;7.25;;
84264;SDS011;74412;45.626;5.108;2023-12-14T10:04:13;7.75;;;7.25;;
84264;SDS011;74412;45.626;5.108;2023-12-14T10:06:42;11.50;;;9.50;;
84264;SDS011;74412;45.626;5.108;2023-12-14T10:09:10;7.00;;;7.00;;
84264;SDS011;74412;45.626;5.108;2023-12-14T10:11:39;10.25;;;7.25;;
84264;SDS011;74412;45.626;5.108;2023-12-14T10:14:17;8.25;;;7.00;;
84264;SDS011;74412;45.626;5.108;2023-12-14T10:16:45;7.25;;;7.00;;
84264;SDS011;74412;45.626;5.108;2023-12-14T10:19:13;7.75;;;7.50;;
84264;SDS011;74412;45.626;5.108;2023-12-14T10:21:39;10.50;;;10.00;;
84264;SDS011;74412;45.626;5.108;2023-12-14T10:24:07;9.50;;;9.25;;
84264;SDS011;74412;45.626;5.108;2023-12-14T10:26:35;11.75;;;11.50;;
84264;SDS011;74412;45.626;5.108;2023-12-14T10:29:02;7.50;;;7.25;;
84264;SDS011;74412;45.626;5.108;2023-12-14T10:31:29;8.75;;;8.75;;
84264;SDS011;74412;45.626;5.108;2023-12-14T10:33:56;9.25;;;9.00;;
84264;SDS011;74412;45.626;5.108;2023-12-14T10:36:24;8.25;;;7.25;;
84264;SDS011;74412;45.626;5.108;2023-12-14T10:38:53;6.00;;;6.00;;
84264;SDS011;74412;45.626;5.108;2023-12-14T10:41:24;9.00;;;8.00;;
84264;SDS011;74412;45.626;5.108;2023-12-14T10:43:51;13.25;;;10.25;;
84264;SDS011;74412;45.626;5.108;2023-12-14T10:46:21;9.00;;;8.00;;
84264;SDS011;74412;45.626;5.108;2023-12-14T10:48:49;8.75;;;7.25;;
84264;SDS011;74412;45.626;5.108;2023-12-14T10:51:17;14.00;;;11.00;;
84264;SDS011;74412;45.626;5.108;2023-12-14T10:53:46;10.00;;;8.00;;
84264;SDS011;74412;45.626;5.108;2023-12-14T10:56:16;8.25;;;7.75;;
84264;SDS011;74412;45.626;5.108;2023-12-14T10:58:46;8.00;;;8.00;;
84264;SDS011;74412;45.626;5.108;2023-12-14T11:01:14;6.50;;;6.50;;
84264;SDS011;74412;45.626;5.108;2023-12-14T11:03:42;5.75;;;5.75;;
84264;SDS011;74412;45.626;5.108;2023-12-14T11:06:29;5.50;;;5.50;;
84264;SDS011;74412;45.626;5.108;2023-12-14T11:08:57;7.00;;;7.00;;
84264;SDS011;74412;45.626;5.108;2023-12-14T11:11:30;8.00;;;5.50;;
84264;SDS011;74412;45.626;5.108;2023-12-14T11:13:56;9.00;;;8.00;;
84264;SDS011;74412;45.626;5.108;2023-12-14T11:16:23;11.25;;;7.75;;
84264;SDS011;74412;45.626;5.108;2023-12-14T11:21:56;8.00;;;8.00;;
84264;SDS011;74412;45.626;5.108;2023-12-14T11:24:37;9.75;;;8.00;;
84264;SDS011;74412;45.626;5.108;2023-12-14T11:27:11;6.75;;;5.25;;
84264;SDS011;74412;45.626;5.108;2023-12-14T11:29:38;3.75;;;3.25;;
84264;SDS011;74412;45.626;5.108;2023-12-14T11:32:06;8.00;;;8.00;;
84264;SDS011;74412;45.626;5.108;2023-12-14T11:34:33;10.00;;;9.25;;
84264;SDS011;74412;45.626;5.108;2023-12-14T11:37:00;7.50;;;7.50;;
84264;SDS011;74412;45.626;5.108;2023-12-14T11:39:29;6.75;;;6.75;;
84264;SDS011;74412;45.626;5.108;2023-12-14T11:41:59;9.50;;;6.75;;
84264;SDS011;74412;45.626;5.108;2023-12-14T11:44:28;10.00;;;9.50;;
84264;SDS011;74412;45.626;5.108;2023-12-14T11:46:55;11.25;;;10.75;;
84264;SDS011;74412;45.626;5.108;2023-12-14T11:49:23;14.25;;;12.50;;
84264;SDS011;74412;45.626;5.108;2023-12-14T11:51:51;12.50;;;11.50;;
84264;SDS011;74412;45.626;5.108;2023-12-14T11:54:18;15.00;;;12.00;;
84264;SDS011;74412;45.626;5.108;2023-12-14T11:56:47;12.50;;;10.50;;
84264;SDS011;74412;45.626;5.108;2023-12-14T11:59:14;12.00;;;12.00;;
84264;SDS011;74412;45.626;5.108;2023-12-14T12:01:54;13.50;;;10.75;;
84264;SDS011;74412;45.626;5.108;2023-12-14T12:04:21;10.00;;;8.75;;
84264;SDS011;74412;45.626;5.108;2023-12-14T12:06:48;10.00;;;8.75;;
84264;SDS011;74412;45.626;5.108;2023-12-14T12:09:31;11.25;;;11.25;;
84264;SDS011;74412;45.626;5.108;2023-12-14T12:12:00;10.50;;;10.25;;
84264;SDS011;74412;45.626;5.108;2023-12-14T12:14:27;10.75;;;10.75;;
84264;SDS011;74412;45.626;5.108;2023-12-14T12:16:55;9.50;;;9.00;;
84264;SDS011;74412;45.626;5.108;2023-12-14T12:19:21;9.00;;;9.00;;
84264;SDS011;74412;45.626;5.108;2023-12-14T12:21:48;9.00;;;9.00;;
84264;SDS011;74412;45.626;5.108;2023-12-14T12:24:15;7.50;;;6.75;;
84264;SDS011;74412;45.626;5.108;2023-12-14T12:26:42;10.25;;;9.00;;
84264;SDS011;74412;45.626;5.108;2023-12-14T12:29:08;7.75;;;7.75;;
84264;SDS011;74412;45.626;5.108;2023-12-14T12:31:35;5.00;;;5.00;;
84264;SDS011;74412;45.626;5.108;2023-12-14T12:34:04;7.75;;;7.00;;
84264;SDS011;74412;45.626;5.108;2023-12-14T12:36:30;6.00;;;6.00;;
84264;SDS011;74412;45.626;5.108;2023-12-14T12:38:57;5.00;;;5.00;;
84264;SDS011;74412;45.626;5.108;2023-12-14T12:41:23;5.50;;;5.50;;
84264;SDS011;74412;45.626;5.108;2023-12-14T12:43:50;9.00;;;6.75;;
84264;SDS011;74412;45.626;5.108;2023-12-14T12:46:17;5.00;;;5.00;;
84264;SDS011;74412;45.626;5.108;2023-12-14T12:48:44;7.75;;;6.25;;
84264;SDS011;74412;45.626;5.108;2023-12-14T12:51:13;5.00;;;5.00;;
84264;SDS011;74412;45.626;5.108;2023-12-14T12:53:40;9.00;;;6.00;;
84264;SDS011;74412;45.626;5.108;2023-12-14T12:56:06;6.00;;;5.25;;
84264;SDS011;74412;45.626;5.108;2023-12-14T12:58:33;5.00;;;5.00;;
84264;SDS011;74412;45.626;5.108;2023-12-14T13:01:00;5.75;;;5.75;;
84264;SDS011;74412;45.626;5.108;2023-12-14T13:03:27;3.75;;;3.75;;
84264;SDS011;74412;45.626;5.108;2023-12-14T13:05:53;3.25;;;2.00;;
84264;SDS011;74412;45.626;5.108;2023-12-14T13:08:21;3.25;;;3.25;;
84264;SDS011;74412;45.626;5.108;2023-12-14T13:10:48;2.00;;;2.00;;
84264;SDS011;74412;45.626;5.108;2023-12-14T13:13:16;2.75;;;2.75;;
84264;SDS011;74412;45.626;5.108;2023-12-14T13:15:43;4.00;;;4.00;;
84264;SDS011;74412;45.626;5.108;2023-12-14T13:18:10;2.00;;;2.00;;
84264;SDS011;74412;45.626;5.108;2023-12-14T13:20:36;2.00;;;2.00;;
84264;SDS011;74412;45.626;5.108;2023-12-14T13:23:03;3.00;;;2.00;;
84264;SDS011;74412;45.626;5.108;2023-12-14T13:25:31;2.00;;;2.00;;
84264;SDS011;74412;45.626;5.108;2023-12-14T13:27:57;1.00;;;1.00;;
84264;SDS011;74412;45.626;5.108;2023-12-14T13:30:24;2.50;;;2.00;;
84264;SDS011;74412;45.626;5.108;2023-12-14T13:32:51;1.00;;;1.00;;
84264;SDS011;74412;45.626;5.108;2023-12-14T13:35:19;2.00;;;2.00;;
84264;SDS011;74412;45.626;5.108;2023-12-14T13:37:47;0.00;;;0.00;;
84264;SDS011;74412;45.626;5.108;2023-12-14T13:40:13;2.25;;;2.00;;
84264;SDS011;74412;45.626;5.108;2023-12-14T13:42:43;2.25;;;1.75;;
84264;SDS011;74412;45.626;5.108;2023-12-14T13:45:10;2.75;;;2.75;;
84264;SDS011;74412;45.626;5.108;2023-12-14T13:47:36;1.75;;;1.75;;
84264;SDS011;74412;45.626;5.108;2023-12-14T13:50:03;2.00;;;2.00;;
84264;SDS011;74412;45.626;5.108;2023-12-14T13:52:30;1.50;;;1.50;;
84264;SDS011;74412;45.626;5.108;2023-12-14T13:54:57;2.00;;;2.00;;
84264;SDS011;74412;45.626;5.108;2023-12-14T13:57:24;2.75;;;2.75;;
84264;SDS011;74412;45.626;5.108;2023-12-14T13:59:53;2.25;;;2.25;;
84264;SDS011;74412;45.626;5.108;2023-12-14T14:02:20;1.00;;;1.00;;
84264;SDS011;74412;45.626;5.108;2023-12-14T14:04:48;4.00;;;2.50;;
84264;SDS011;74412;45.626;5.108;2023-12-14T14:07:17;3.00;;;3.00;;
84264;SDS011;74412;45.626;5.108;2023-12-14T14:09:43;2.00;;;2.00;;
84264;SDS011;74412;45.626;5.108;2023-12-14T14:12:10;3.00;;;3.00;;
84264;SDS011;74412;45.626;5.108;2023-12-14T14:14:37;1.00;;;1.00;;
84264;SDS011;74412;45.626;5.108;2023-12-14T14:17:05;4.00;;;2.75;;
84264;SDS011;74412;45.626;5.108;2023-12-14T14:19:32;2.25;;;2.25;;
84264;SDS011;74412;45.626;5.108;2023-12-14T14:21:59;4.25;;;3.75;;
84264;SDS011;74412;45.626;5.108;2023-12-14T14:24:25;3.00;;;2.00;;
84264;SDS011;74412;45.626;5.108;2023-12-14T14:26:52;4.00;;;3.75;;
84264;SDS011;74412;45.626;5.108;2023-12-14T14:29:19;3.75;;;3.75;;
84264;SDS011;74412;45.626;5.108;2023-12-14T14:31:45;3.00;;;3.00;;
84264;SDS011;74412;45.626;5.108;2023-12-14T14:34:13;7.25;;;5.00;;
84264;SDS011;74412;45.626;5.108;2023-12-14T14:36:40;3.75;;;3.75;;
84264;SDS011;74412;45.626;5.108;2023-12-14T14:39:06;3.50;;;3.50;;
84264;SDS011;74412;45.626;5.108;2023-12-14T14:41:33;4.50;;;4.25;;
84264;SDS011;74412;45.626;5.108;2023-12-14T14:44:00;3.50;;;3.25;;
84264;SDS011;74412;45.626;5.108;2023-12-14T14:46:27;3.00;;;3.00;;
84264;SDS011;74412;45.626;5.108;2023-12-14T14:48:53;4.00;;;3.00;;